sensor_id;sensor_type;location;lat;lon;timestamp;P1;durP1;ratioP1;P2;durP2;ratioP2
11016;SDS011;54687;50.800;6.772;2023-06-14T00:01:50;7.00;;;5.78;;
11016;SDS011;54687;50.800;6.772;2023-06-14T00:04:17;5.90;;;5.38;;
11016;SDS011;54687;50.800;6.772;2023-06-14T00:06:47;6.30;;;5.70;;
11016;SDS011;54687;50.800;6.772;2023-06-14T00:09:15;5.93;;;5.43;;
11016;SDS011;54687;50.800;6.772;2023-06-14T00:11:43;6.05;;;5.55;;
11016;SDS011;54687;50.800;6.772;2023-06-14T00:14:09;5.82;;;5.43;;
11016;SDS011;54687;50.800;6.772;2023-06-14T00:16:36;7.82;;;6.95;;
11016;SDS011;54687;50.800;6.772;2023-06-14T00:19:04;6.95;;;6.43;;
11016;SDS011;54687;50.800;6.772;2023-06-14T00:21:31;6.55;;;5.95;;
11016;SDS011;54687;50.800;6.772;2023-06-14T00:24:00;10.85;;;5.90;;
11016;SDS011;54687;50.800;6.772;2023-06-14T00:26:27;7.90;;;6.43;;
11016;SDS011;54687;50.800;6.772;2023-06-14T00:28:54;6.38;;;5.90;;
11016;SDS011;54687;50.800;6.772;2023-06-14T00:31:22;6.60;;;6.00;;
11016;SDS011;54687;50.800;6.772;2023-06-14T00:33:49;6.80;;;6.18;;
11016;SDS011;54687;50.800;6.772;2023-06-14T00:36:15;7.70;;;6.15;;
11016;SDS011;54687;50.800;6.772;2023-06-14T00:38:42;6.78;;;5.65;;
11016;SDS011;54687;50.800;6.772;2023-06-14T00:41:10;7.13;;;6.00;;
11016;SDS011;54687;50.800;6.772;2023-06-14T00:43:37;6.10;;;5.60;;
11016;SDS011;54687;50.800;6.772;2023-06-14T00:46:03;7.82;;;6.07;;
11016;SDS011;54687;50.800;6.772;2023-06-14T00:48:30;6.45;;;5.90;;
11016;SDS011;54687;50.800;6.772;2023-06-14T00:50:58;7.97;;;5.78;;
11016;SDS011;54687;50.800;6.772;2023-06-14T00:53:29;7.18;;;6.47;;
11016;SDS011;54687;50.800;6.772;2023-06-14T00:55:56;6.57;;;5.80;;
11016;SDS011;54687;50.800;6.772;2023-06-14T00:58:24;6.90;;;6.13;;
11016;SDS011;54687;50.800;6.772;2023-06-14T01:00:52;6.57;;;6.07;;
11016;SDS011;54687;50.800;6.772;2023-06-14T01:03:19;6.43;;;5.93;;
11016;SDS011;54687;50.800;6.772;2023-06-14T01:05:47;6.60;;;5.93;;
11016;SDS011;54687;50.800;6.772;2023-06-14T01:08:18;6.07;;;5.57;;
11016;SDS011;54687;50.800;6.772;2023-06-14T01:10:56;7.57;;;6.80;;
11016;SDS011;54687;50.800;6.772;2023-06-14T01:13:32;7.88;;;6.82;;
11016;SDS011;54687;50.800;6.772;2023-06-14T01:16:00;7.05;;;6.40;;
11016;SDS011;54687;50.800;6.772;2023-06-14T01:18:28;7.30;;;6.70;;
11016;SDS011;54687;50.800;6.772;2023-06-14T01:20:55;7.07;;;6.38;;
11016;SDS011;54687;50.800;6.772;2023-06-14T01:23:24;6.20;;;5.72;;
11016;SDS011;54687;50.800;6.772;2023-06-14T01:25:58;7.15;;;6.55;;
11016;SDS011;54687;50.800;6.772;2023-06-14T01:28:28;7.28;;;6.68;;
11016;SDS011;54687;50.800;6.772;2023-06-14T01:30:59;8.48;;;6.72;;
11016;SDS011;54687;50.800;6.772;2023-06-14T01:33:29;8.02;;;6.32;;
11016;SDS011;54687;50.800;6.772;2023-06-14T01:35:59;6.97;;;6.00;;
11016;SDS011;54687;50.800;6.772;2023-06-14T01:38:29;7.07;;;6.47;;
11016;SDS011;54687;50.800;6.772;2023-06-14T01:40:56;7.40;;;6.25;;
11016;SDS011;54687;50.800;6.772;2023-06-14T01:43:25;7.13;;;6.43;;
11016;SDS011;54687;50.800;6.772;2023-06-14T01:45:53;7.03;;;6.32;;
11016;SDS011;54687;50.800;6.772;2023-06-14T01:48:21;6.78;;;6.13;;
11016;SDS011;54687;50.800;6.772;2023-06-14T01:50:48;7.25;;;6.35;;
11016;SDS011;54687;50.800;6.772;2023-06-14T01:53:15;6.75;;;6.15;;
11016;SDS011;54687;50.800;6.772;2023-06-14T01:55:44;6.65;;;6.10;;
11016;SDS011;54687;50.800;6.772;2023-06-14T01:58:13;6.57;;;6.07;;
11016;SDS011;54687;50.800;6.772;2023-06-14T02:00:41;6.85;;;6.25;;
11016;SDS011;54687;50.800;6.772;2023-06-14T02:03:10;6.13;;;5.55;;
11016;SDS011;54687;50.800;6.772;2023-06-14T02:05:38;10.38;;;6.47;;
11016;SDS011;54687;50.800;6.772;2023-06-14T02:08:05;7.00;;;6.40;;
11016;SDS011;54687;50.800;6.772;2023-06-14T02:10:32;8.38;;;6.47;;
11016;SDS011;54687;50.800;6.772;2023-06-14T02:13:00;8.05;;;6.50;;
11016;SDS011;54687;50.800;6.772;2023-06-14T02:15:27;7.68;;;6.65;;
11016;SDS011;54687;50.800;6.772;2023-06-14T02:17:59;7.05;;;6.35;;
11016;SDS011;54687;50.800;6.772;2023-06-14T02:20:27;7.53;;;6.63;;
11016;SDS011;54687;50.800;6.772;2023-06-14T02:22:54;7.07;;;6.35;;
11016;SDS011;54687;50.800;6.772;2023-06-14T02:25:21;7.07;;;6.47;;
11016;SDS011;54687;50.800;6.772;2023-06-14T02:27:47;7.05;;;5.95;;
11016;SDS011;54687;50.800;6.772;2023-06-14T02:30:15;6.80;;;6.20;;
11016;SDS011;54687;50.800;6.772;2023-06-14T02:32:42;6.90;;;6.10;;
11016;SDS011;54687;50.800;6.772;2023-06-14T02:35:09;6.10;;;5.65;;
11016;SDS011;54687;50.800;6.772;2023-06-14T02:37:36;7.32;;;6.63;;
11016;SDS011;54687;50.800;6.772;2023-06-14T02:40:03;7.60;;;6.57;;
11016;SDS011;54687;50.800;6.772;2023-06-14T02:42:31;7.72;;;6.78;;
11016;SDS011;54687;50.800;6.772;2023-06-14T02:44:57;7.00;;;6.40;;
11016;SDS011;54687;50.800;6.772;2023-06-14T02:47:25;6.72;;;6.05;;
11016;SDS011;54687;50.800;6.772;2023-06-14T02:49:52;7.22;;;6.50;;
11016;SDS011;54687;50.800;6.772;2023-06-14T02:52:19;7.82;;;7.05;;
11016;SDS011;54687;50.800;6.772;2023-06-14T02:54:47;7.00;;;6.50;;
11016;SDS011;54687;50.800;6.772;2023-06-14T02:57:14;6.75;;;6.18;;
11016;SDS011;54687;50.800;6.772;2023-06-14T02:59:41;7.03;;;6.38;;
11016;SDS011;54687;50.800;6.772;2023-06-14T03:02:08;6.82;;;6.22;;
11016;SDS011;54687;50.800;6.772;2023-06-14T03:04:36;6.82;;;6.15;;
11016;SDS011;54687;50.800;6.772;2023-06-14T03:07:03;7.55;;;6.45;;
11016;SDS011;54687;50.800;6.772;2023-06-14T03:09:34;7.15;;;6.45;;
11016;SDS011;54687;50.800;6.772;2023-06-14T03:12:03;7.38;;;6.78;;
11016;SDS011;54687;50.800;6.772;2023-06-14T03:14:31;7.63;;;6.93;;
11016;SDS011;54687;50.800;6.772;2023-06-14T03:16:58;7.82;;;6.93;;
11016;SDS011;54687;50.800;6.772;2023-06-14T03:19:25;7.63;;;6.93;;
11016;SDS011;54687;50.800;6.772;2023-06-14T03:21:53;8.00;;;7.30;;
11016;SDS011;54687;50.800;6.772;2023-06-14T03:24:22;10.73;;;7.25;;
11016;SDS011;54687;50.800;6.772;2023-06-14T03:26:49;7.53;;;6.60;;
11016;SDS011;54687;50.800;6.772;2023-06-14T03:29:15;7.68;;;7.07;;
11016;SDS011;54687;50.800;6.772;2023-06-14T03:31:55;8.93;;;7.07;;
11016;SDS011;54687;50.800;6.772;2023-06-14T03:34:23;7.50;;;6.80;;
11016;SDS011;54687;50.800;6.772;2023-06-14T03:36:50;7.70;;;7.00;;
11016;SDS011;54687;50.800;6.772;2023-06-14T03:39:18;7.78;;;6.97;;
11016;SDS011;54687;50.800;6.772;2023-06-14T03:41:45;8.98;;;6.80;;
11016;SDS011;54687;50.800;6.772;2023-06-14T03:44:14;10.23;;;7.45;;
11016;SDS011;54687;50.800;6.772;2023-06-14T03:46:42;6.82;;;6.32;;
11016;SDS011;54687;50.800;6.772;2023-06-14T03:49:08;8.73;;;7.32;;
11016;SDS011;54687;50.800;6.772;2023-06-14T03:51:35;8.48;;;7.03;;
11016;SDS011;54687;50.800;6.772;2023-06-14T03:54:03;7.25;;;6.65;;
11016;SDS011;54687;50.800;6.772;2023-06-14T03:56:32;12.65;;;7.72;;
11016;SDS011;54687;50.800;6.772;2023-06-14T03:58:58;7.93;;;7.18;;
11016;SDS011;54687;50.800;6.772;2023-06-14T04:01:26;7.93;;;7.22;;
11016;SDS011;54687;50.800;6.772;2023-06-14T04:03:54;8.00;;;7.22;;
11016;SDS011;54687;50.800;6.772;2023-06-14T04:06:22;8.10;;;7.40;;
11016;SDS011;54687;50.800;6.772;2023-06-14T04:08:50;7.88;;;7.18;;
11016;SDS011;54687;50.800;6.772;2023-06-14T04:11:17;7.75;;;7.03;;
11016;SDS011;54687;50.800;6.772;2023-06-14T04:13:46;8.63;;;7.82;;
11016;SDS011;54687;50.800;6.772;2023-06-14T04:16:13;8.20;;;7.43;;
11016;SDS011;54687;50.800;6.772;2023-06-14T04:18:39;8.70;;;7.78;;
11016;SDS011;54687;50.800;6.772;2023-06-14T04:21:06;8.15;;;7.45;;
11016;SDS011;54687;50.800;6.772;2023-06-14T04:23:33;8.00;;;7.22;;
11016;SDS011;54687;50.800;6.772;2023-06-14T04:26:00;7.85;;;7.15;;
11016;SDS011;54687;50.800;6.772;2023-06-14T04:28:27;8.38;;;7.10;;
11016;SDS011;54687;50.800;6.772;2023-06-14T04:30:57;9.98;;;7.75;;
11016;SDS011;54687;50.800;6.772;2023-06-14T04:33:26;8.07;;;7.28;;
11016;SDS011;54687;50.800;6.772;2023-06-14T04:35:53;7.97;;;7.30;;
11016;SDS011;54687;50.800;6.772;2023-06-14T04:38:21;7.90;;;7.05;;
11016;SDS011;54687;50.800;6.772;2023-06-14T04:40:50;8.63;;;6.63;;
11016;SDS011;54687;50.800;6.772;2023-06-14T04:43:18;8.07;;;6.57;;
11016;SDS011;54687;50.800;6.772;2023-06-14T04:45:52;7.72;;;6.85;;
11016;SDS011;54687;50.800;6.772;2023-06-14T04:48:21;7.68;;;6.97;;
11016;SDS011;54687;50.800;6.772;2023-06-14T04:50:48;10.35;;;7.57;;
11016;SDS011;54687;50.800;6.772;2023-06-14T04:53:18;8.98;;;7.05;;
11016;SDS011;54687;50.800;6.772;2023-06-14T04:55:46;8.57;;;6.70;;
11016;SDS011;54687;50.800;6.772;2023-06-14T04:58:13;8.35;;;7.07;;
11016;SDS011;54687;50.800;6.772;2023-06-14T05:00:42;14.25;;;7.70;;
11016;SDS011;54687;50.800;6.772;2023-06-14T05:03:09;10.05;;;7.05;;
11016;SDS011;54687;50.800;6.772;2023-06-14T05:05:40;8.50;;;7.03;;
11016;SDS011;54687;50.800;6.772;2023-06-14T05:08:07;7.50;;;6.78;;
11016;SDS011;54687;50.800;6.772;2023-06-14T05:10:33;9.35;;;6.60;;
11016;SDS011;54687;50.800;6.772;2023-06-14T05:13:01;7.40;;;6.18;;
11016;SDS011;54687;50.800;6.772;2023-06-14T05:15:30;7.18;;;6.47;;
11016;SDS011;54687;50.800;6.772;2023-06-14T05:17:57;9.68;;;7.78;;
11016;SDS011;54687;50.800;6.772;2023-06-14T05:20:24;12.93;;;7.57;;
11016;SDS011;54687;50.800;6.772;2023-06-14T05:22:53;9.30;;;7.13;;
11016;SDS011;54687;50.800;6.772;2023-06-14T05:25:22;10.40;;;7.32;;
11016;SDS011;54687;50.800;6.772;2023-06-14T05:27:49;12.13;;;7.95;;
11016;SDS011;54687;50.800;6.772;2023-06-14T05:30:15;21.08;;;7.82;;
11016;SDS011;54687;50.800;6.772;2023-06-14T05:32:42;20.50;;;7.57;;
11016;SDS011;54687;50.800;6.772;2023-06-14T05:35:10;23.80;;;7.80;;
11016;SDS011;54687;50.800;6.772;2023-06-14T05:37:37;15.57;;;7.43;;
11016;SDS011;54687;50.800;6.772;2023-06-14T05:40:05;13.52;;;7.05;;
11016;SDS011;54687;50.800;6.772;2023-06-14T05:42:34;16.33;;;7.50;;
11016;SDS011;54687;50.800;6.772;2023-06-14T05:45:01;11.60;;;6.38;;
11016;SDS011;54687;50.800;6.772;2023-06-14T05:47:27;14.32;;;7.10;;
11016;SDS011;54687;50.800;6.772;2023-06-14T05:49:54;14.48;;;6.13;;
11016;SDS011;54687;50.800;6.772;2023-06-14T05:52:21;6.70;;;5.35;;
11016;SDS011;54687;50.800;6.772;2023-06-14T05:54:48;8.20;;;5.28;;
11016;SDS011;54687;50.800;6.772;2023-06-14T05:57:16;7.05;;;4.50;;
11016;SDS011;54687;50.800;6.772;2023-06-14T05:59:43;5.30;;;4.88;;
11016;SDS011;54687;50.800;6.772;2023-06-14T06:02:10;6.43;;;5.10;;
11016;SDS011;54687;50.800;6.772;2023-06-14T06:04:37;5.20;;;4.72;;
11016;SDS011;54687;50.800;6.772;2023-06-14T06:07:03;5.10;;;4.60;;
11016;SDS011;54687;50.800;6.772;2023-06-14T06:09:32;5.35;;;4.40;;
11016;SDS011;54687;50.800;6.772;2023-06-14T06:12:00;4.63;;;4.22;;
11016;SDS011;54687;50.800;6.772;2023-06-14T06:14:28;5.35;;;4.22;;
11016;SDS011;54687;50.800;6.772;2023-06-14T06:16:55;5.35;;;4.63;;
11016;SDS011;54687;50.800;6.772;2023-06-14T06:19:22;7.80;;;4.63;;
11016;SDS011;54687;50.800;6.772;2023-06-14T06:21:50;4.85;;;4.25;;
11016;SDS011;54687;50.800;6.772;2023-06-14T06:24:16;4.97;;;4.47;;
11016;SDS011;54687;50.800;6.772;2023-06-14T06:26:45;4.88;;;4.22;;
11016;SDS011;54687;50.800;6.772;2023-06-14T06:29:11;4.97;;;4.47;;
11016;SDS011;54687;50.800;6.772;2023-06-14T06:31:42;5.20;;;4.00;;
11016;SDS011;54687;50.800;6.772;2023-06-14T06:34:08;6.75;;;4.70;;
11016;SDS011;54687;50.800;6.772;2023-06-14T06:36:35;5.03;;;4.50;;
11016;SDS011;54687;50.800;6.772;2023-06-14T06:39:02;7.35;;;4.32;;
11016;SDS011;54687;50.800;6.772;2023-06-14T06:41:34;6.97;;;4.55;;
11016;SDS011;54687;50.800;6.772;2023-06-14T06:44:02;4.88;;;4.40;;
11016;SDS011;54687;50.800;6.772;2023-06-14T06:46:29;5.82;;;4.93;;
11016;SDS011;54687;50.800;6.772;2023-06-14T06:48:57;5.53;;;4.63;;
11016;SDS011;54687;50.800;6.772;2023-06-14T06:51:24;5.95;;;4.07;;
11016;SDS011;54687;50.800;6.772;2023-06-14T06:53:51;6.75;;;4.22;;
11016;SDS011;54687;50.800;6.772;2023-06-14T06:56:19;5.97;;;4.25;;
11016;SDS011;54687;50.800;6.772;2023-06-14T06:58:46;5.07;;;4.43;;
11016;SDS011;54687;50.800;6.772;2023-06-14T07:01:12;5.82;;;3.90;;
11016;SDS011;54687;50.800;6.772;2023-06-14T07:03:39;4.40;;;3.72;;
11016;SDS011;54687;50.800;6.772;2023-06-14T07:06:07;6.63;;;4.35;;
11016;SDS011;54687;50.800;6.772;2023-06-14T07:08:33;5.75;;;3.85;;
11016;SDS011;54687;50.800;6.772;2023-06-14T07:11:01;6.03;;;4.00;;
11016;SDS011;54687;50.800;6.772;2023-06-14T07:13:27;5.05;;;4.20;;
11016;SDS011;54687;50.800;6.772;2023-06-14T07:15:54;14.57;;;4.35;;
11016;SDS011;54687;50.800;6.772;2023-06-14T07:18:21;6.57;;;3.78;;
11016;SDS011;54687;50.800;6.772;2023-06-14T07:20:48;8.68;;;4.30;;
11016;SDS011;54687;50.800;6.772;2023-06-14T07:23:16;8.20;;;4.45;;
11016;SDS011;54687;50.800;6.772;2023-06-14T07:25:43;4.78;;;3.80;;
11016;SDS011;54687;50.800;6.772;2023-06-14T07:28:09;5.50;;;4.18;;
11016;SDS011;54687;50.800;6.772;2023-06-14T07:30:36;5.93;;;3.88;;
11016;SDS011;54687;50.800;6.772;2023-06-14T07:33:02;4.18;;;3.78;;
11016;SDS011;54687;50.800;6.772;2023-06-14T07:35:29;5.97;;;3.85;;
11016;SDS011;54687;50.800;6.772;2023-06-14T07:37:56;4.80;;;3.58;;
11016;SDS011;54687;50.800;6.772;2023-06-14T07:40:24;7.03;;;3.95;;
11016;SDS011;54687;50.800;6.772;2023-06-14T07:42:52;9.30;;;3.47;;
11016;SDS011;54687;50.800;6.772;2023-06-14T07:45:20;4.93;;;4.10;;
11016;SDS011;54687;50.800;6.772;2023-06-14T07:47:47;5.38;;;4.07;;
11016;SDS011;54687;50.800;6.772;2023-06-14T07:50:13;6.15;;;3.83;;
11016;SDS011;54687;50.800;6.772;2023-06-14T07:52:40;5.28;;;4.35;;
11016;SDS011;54687;50.800;6.772;2023-06-14T07:55:07;4.63;;;4.07;;
11016;SDS011;54687;50.800;6.772;2023-06-14T07:57:36;5.00;;;4.07;;
11016;SDS011;54687;50.800;6.772;2023-06-14T08:00:03;4.60;;;3.58;;
11016;SDS011;54687;50.800;6.772;2023-06-14T08:02:32;5.65;;;4.35;;
11016;SDS011;54687;50.800;6.772;2023-06-14T08:05:01;5.57;;;4.20;;
11016;SDS011;54687;50.800;6.772;2023-06-14T08:07:27;5.65;;;4.20;;
11016;SDS011;54687;50.800;6.772;2023-06-14T08:09:54;6.55;;;4.00;;
11016;SDS011;54687;50.800;6.772;2023-06-14T08:12:20;5.10;;;4.15;;
11016;SDS011;54687;50.800;6.772;2023-06-14T08:14:48;6.97;;;4.55;;
11016;SDS011;54687;50.800;6.772;2023-06-14T08:17:16;6.90;;;4.70;;
11016;SDS011;54687;50.800;6.772;2023-06-14T08:19:43;4.70;;;4.38;;
11016;SDS011;54687;50.800;6.772;2023-06-14T08:22:10;8.25;;;4.00;;
11016;SDS011;54687;50.800;6.772;2023-06-14T08:24:37;6.80;;;4.20;;
11016;SDS011;54687;50.800;6.772;2023-06-14T08:27:04;5.22;;;4.15;;
11016;SDS011;54687;50.800;6.772;2023-06-14T08:29:31;9.27;;;4.60;;
11016;SDS011;54687;50.800;6.772;2023-06-14T08:32:00;6.85;;;3.90;;
11016;SDS011;54687;50.800;6.772;2023-06-14T08:34:27;4.95;;;4.07;;
11016;SDS011;54687;50.800;6.772;2023-06-14T08:36:53;4.20;;;3.80;;
11016;SDS011;54687;50.800;6.772;2023-06-14T08:39:20;4.72;;;3.83;;
11016;SDS011;54687;50.800;6.772;2023-06-14T08:41:48;7.95;;;3.80;;
11016;SDS011;54687;50.800;6.772;2023-06-14T08:44:15;5.82;;;3.42;;
11016;SDS011;54687;50.800;6.772;2023-06-14T08:46:42;3.70;;;3.50;;
11016;SDS011;54687;50.800;6.772;2023-06-14T08:49:11;4.93;;;3.47;;
11016;SDS011;54687;50.800;6.772;2023-06-14T08:51:39;4.65;;;3.90;;
11016;SDS011;54687;50.800;6.772;2023-06-14T08:54:06;3.20;;;3.00;;
11016;SDS011;54687;50.800;6.772;2023-06-14T08:56:33;3.78;;;3.00;;
11016;SDS011;54687;50.800;6.772;2023-06-14T08:59:02;5.97;;;2.97;;
11016;SDS011;54687;50.800;6.772;2023-06-14T09:01:32;3.22;;;2.92;;
11016;SDS011;54687;50.800;6.772;2023-06-14T09:04:00;4.43;;;2.83;;
11016;SDS011;54687;50.800;6.772;2023-06-14T09:06:28;3.50;;;3.20;;
11016;SDS011;54687;50.800;6.772;2023-06-14T09:08:55;4.05;;;3.15;;
11016;SDS011;54687;50.800;6.772;2023-06-14T09:11:22;5.72;;;3.30;;
11016;SDS011;54687;50.800;6.772;2023-06-14T09:13:50;3.45;;;3.08;;
11016;SDS011;54687;50.800;6.772;2023-06-14T09:16:17;3.45;;;3.15;;
11016;SDS011;54687;50.800;6.772;2023-06-14T09:18:45;4.85;;;3.30;;
11016;SDS011;54687;50.800;6.772;2023-06-14T09:21:13;3.15;;;2.85;;
11016;SDS011;54687;50.800;6.772;2023-06-14T09:23:43;3.88;;;2.60;;
11016;SDS011;54687;50.800;6.772;2023-06-14T09:26:11;5.88;;;2.95;;
11016;SDS011;54687;50.800;6.772;2023-06-14T09:28:41;3.20;;;2.90;;
11016;SDS011;54687;50.800;6.772;2023-06-14T09:31:09;4.88;;;4.35;;
11016;SDS011;54687;50.800;6.772;2023-06-14T09:33:36;3.75;;;2.90;;
11016;SDS011;54687;50.800;6.772;2023-06-14T09:36:03;3.45;;;2.60;;
11016;SDS011;54687;50.800;6.772;2023-06-14T09:38:30;3.47;;;2.72;;
11016;SDS011;54687;50.800;6.772;2023-06-14T09:40:58;3.25;;;2.95;;
11016;SDS011;54687;50.800;6.772;2023-06-14T09:43:25;4.13;;;3.72;;
11016;SDS011;54687;50.800;6.772;2023-06-14T09:45:54;4.68;;;3.30;;
11016;SDS011;54687;50.800;6.772;2023-06-14T09:48:22;3.42;;;3.13;;
11016;SDS011;54687;50.800;6.772;2023-06-14T09:50:49;5.40;;;3.92;;
11016;SDS011;54687;50.800;6.772;2023-06-14T09:53:16;4.22;;;3.28;;
11016;SDS011;54687;50.800;6.772;2023-06-14T09:55:47;4.07;;;3.67;;
11016;SDS011;54687;50.800;6.772;2023-06-14T09:58:17;5.72;;;4.60;;
11016;SDS011;54687;50.800;6.772;2023-06-14T10:00:50;3.63;;;3.00;;
11016;SDS011;54687;50.800;6.772;2023-06-14T10:03:20;3.67;;;3.05;;
11016;SDS011;54687;50.800;6.772;2023-06-14T10:05:51;4.47;;;2.90;;
11016;SDS011;54687;50.800;6.772;2023-06-14T10:08:19;5.20;;;3.58;;
11016;SDS011;54687;50.800;6.772;2023-06-14T10:10:50;3.22;;;2.92;;
11016;SDS011;54687;50.800;6.772;2023-06-14T10:13:18;3.03;;;2.83;;
11016;SDS011;54687;50.800;6.772;2023-06-14T10:15:50;3.42;;;3.13;;
11016;SDS011;54687;50.800;6.772;2023-06-14T10:18:28;4.88;;;3.30;;
11016;SDS011;54687;50.800;6.772;2023-06-14T10:21:03;3.20;;;2.90;;
11016;SDS011;54687;50.800;6.772;2023-06-14T10:23:37;4.30;;;2.90;;
11016;SDS011;54687;50.800;6.772;2023-06-14T10:26:13;6.28;;;4.43;;
11016;SDS011;54687;50.800;6.772;2023-06-14T10:28:56;4.97;;;3.00;;
11016;SDS011;54687;50.800;6.772;2023-06-14T10:31:29;3.95;;;2.85;;
11016;SDS011;54687;50.800;6.772;2023-06-14T10:34:06;3.25;;;2.97;;
11016;SDS011;54687;50.800;6.772;2023-06-14T10:36:33;3.13;;;2.80;;
11016;SDS011;54687;50.800;6.772;2023-06-14T10:39:04;3.20;;;2.90;;
11016;SDS011;54687;50.800;6.772;2023-06-14T10:41:34;4.18;;;2.90;;
11016;SDS011;54687;50.800;6.772;2023-06-14T10:47:06;4.03;;;3.15;;
11016;SDS011;54687;50.800;6.772;2023-06-14T10:49:38;3.08;;;2.80;;
11016;SDS011;54687;50.800;6.772;2023-06-14T10:52:08;4.45;;;3.28;;
11016;SDS011;54687;50.800;6.772;2023-06-14T10:57:38;9.60;;;6.80;;
11016;SDS011;54687;50.800;6.772;2023-06-14T11:00:07;6.25;;;5.45;;
11016;SDS011;54687;50.800;6.772;2023-06-14T11:05:41;3.10;;;2.90;;
11016;SDS011;54687;50.800;6.772;2023-06-14T11:08:18;4.55;;;3.80;;
11016;SDS011;54687;50.800;6.772;2023-06-14T11:10:55;3.55;;;2.90;;
11016;SDS011;54687;50.800;6.772;2023-06-14T11:13:26;3.63;;;3.28;;
11016;SDS011;54687;50.800;6.772;2023-06-14T11:15:55;4.38;;;4.07;;
11016;SDS011;54687;50.800;6.772;2023-06-14T11:18:22;6.22;;;4.10;;
11016;SDS011;54687;50.800;6.772;2023-06-14T11:20:50;4.00;;;3.20;;
11016;SDS011;54687;50.800;6.772;2023-06-14T11:23:17;3.22;;;2.92;;
11016;SDS011;54687;50.800;6.772;2023-06-14T11:25:49;4.00;;;3.67;;
11016;SDS011;54687;50.800;6.772;2023-06-14T11:28:16;4.05;;;2.97;;
11016;SDS011;54687;50.800;6.772;2023-06-14T11:30:44;4.88;;;4.05;;
11016;SDS011;54687;50.800;6.772;2023-06-14T11:33:14;3.47;;;3.17;;
11016;SDS011;54687;50.800;6.772;2023-06-14T11:35:43;3.60;;;2.88;;
11016;SDS011;54687;50.800;6.772;2023-06-14T11:38:10;3.17;;;2.90;;
11016;SDS011;54687;50.800;6.772;2023-06-14T11:40:37;3.75;;;3.42;;
11016;SDS011;54687;50.800;6.772;2023-06-14T11:43:04;3.45;;;3.15;;
11016;SDS011;54687;50.800;6.772;2023-06-14T11:45:31;4.53;;;2.90;;
11016;SDS011;54687;50.800;6.772;2023-06-14T11:47:58;4.40;;;3.08;;
11016;SDS011;54687;50.800;6.772;2023-06-14T11:50:27;4.60;;;3.70;;
11016;SDS011;54687;50.800;6.772;2023-06-14T11:52:54;3.50;;;3.28;;
11016;SDS011;54687;50.800;6.772;2023-06-14T11:55:23;4.38;;;3.00;;
11016;SDS011;54687;50.800;6.772;2023-06-14T11:57:50;3.38;;;3.08;;
11016;SDS011;54687;50.800;6.772;2023-06-14T12:00:22;7.32;;;3.78;;
11016;SDS011;54687;50.800;6.772;2023-06-14T12:02:53;4.57;;;3.50;;
11016;SDS011;54687;50.800;6.772;2023-06-14T12:05:20;3.28;;;2.97;;
11016;SDS011;54687;50.800;6.772;2023-06-14T12:07:49;4.75;;;4.00;;
11016;SDS011;54687;50.800;6.772;2023-06-14T12:10:20;3.00;;;2.80;;
11016;SDS011;54687;50.800;6.772;2023-06-14T12:12:47;4.38;;;3.90;;
11016;SDS011;54687;50.800;6.772;2023-06-14T12:15:14;3.13;;;2.70;;
11016;SDS011;54687;50.800;6.772;2023-06-14T12:17:42;3.80;;;2.90;;
11016;SDS011;54687;50.800;6.772;2023-06-14T12:20:10;4.28;;;2.53;;
11016;SDS011;54687;50.800;6.772;2023-06-14T12:22:39;3.22;;;3.00;;
11016;SDS011;54687;50.800;6.772;2023-06-14T12:25:24;2.80;;;2.60;;
11016;SDS011;54687;50.800;6.772;2023-06-14T12:27:53;5.72;;;3.20;;
11016;SDS011;54687;50.800;6.772;2023-06-14T12:30:21;3.80;;;3.00;;
11016;SDS011;54687;50.800;6.772;2023-06-14T12:32:48;3.47;;;2.78;;
11016;SDS011;54687;50.800;6.772;2023-06-14T12:35:16;3.38;;;3.08;;
11016;SDS011;54687;50.800;6.772;2023-06-14T12:37:43;7.40;;;2.80;;
11016;SDS011;54687;50.800;6.772;2023-06-14T12:40:12;4.00;;;2.80;;
11016;SDS011;54687;50.800;6.772;2023-06-14T12:42:40;3.85;;;2.88;;
11016;SDS011;54687;50.800;6.772;2023-06-14T12:45:08;5.88;;;2.97;;
11016;SDS011;54687;50.800;6.772;2023-06-14T12:47:36;4.13;;;2.92;;
11016;SDS011;54687;50.800;6.772;2023-06-14T12:50:03;3.15;;;2.95;;
11016;SDS011;54687;50.800;6.772;2023-06-14T12:52:30;3.55;;;2.90;;
11016;SDS011;54687;50.800;6.772;2023-06-14T12:55:01;4.68;;;2.78;;
11016;SDS011;54687;50.800;6.772;2023-06-14T12:57:28;3.05;;;2.75;;
11016;SDS011;54687;50.800;6.772;2023-06-14T12:59:56;2.50;;;2.30;;
11016;SDS011;54687;50.800;6.772;2023-06-14T13:02:22;2.95;;;2.67;;
11016;SDS011;54687;50.800;6.772;2023-06-14T13:04:50;4.35;;;2.90;;
11016;SDS011;54687;50.800;6.772;2023-06-14T13:07:17;3.47;;;2.53;;
11016;SDS011;54687;50.800;6.772;2023-06-14T13:09:44;2.50;;;2.30;;
11016;SDS011;54687;50.800;6.772;2023-06-14T13:12:11;2.63;;;2.42;;
11016;SDS011;54687;50.800;6.772;2023-06-14T13:14:37;2.72;;;2.50;;
11016;SDS011;54687;50.800;6.772;2023-06-14T13:17:07;2.95;;;2.38;;
11016;SDS011;54687;50.800;6.772;2023-06-14T13:19:34;2.97;;;2.55;;
11016;SDS011;54687;50.800;6.772;2023-06-14T13:22:01;3.13;;;2.30;;
11016;SDS011;54687;50.800;6.772;2023-06-14T13:24:28;2.28;;;1.98;;
11016;SDS011;54687;50.800;6.772;2023-06-14T13:26:56;3.78;;;2.42;;
11016;SDS011;54687;50.800;6.772;2023-06-14T13:29:23;4.90;;;2.10;;
11016;SDS011;54687;50.800;6.772;2023-06-14T13:31:49;4.45;;;2.10;;
11016;SDS011;54687;50.800;6.772;2023-06-14T13:34:17;4.22;;;2.65;;
11016;SDS011;54687;50.800;6.772;2023-06-14T13:36:44;5.15;;;2.40;;
11016;SDS011;54687;50.800;6.772;2023-06-14T13:39:11;3.40;;;2.10;;
11016;SDS011;54687;50.800;6.772;2023-06-14T13:41:38;2.80;;;2.10;;
11016;SDS011;54687;50.800;6.772;2023-06-14T13:44:04;2.13;;;2.00;;
11016;SDS011;54687;50.800;6.772;2023-06-14T13:46:31;3.10;;;2.30;;
11016;SDS011;54687;50.800;6.772;2023-06-14T13:48:58;3.20;;;2.10;;
11016;SDS011;54687;50.800;6.772;2023-06-14T13:51:27;2.63;;;2.33;;
11016;SDS011;54687;50.800;6.772;2023-06-14T13:53:54;5.85;;;2.13;;
11016;SDS011;54687;50.800;6.772;2023-06-14T13:56:21;3.00;;;1.88;;
11016;SDS011;54687;50.800;6.772;2023-06-14T13:58:49;2.95;;;2.45;;
11016;SDS011;54687;50.800;6.772;2023-06-14T14:01:17;4.35;;;2.80;;
11016;SDS011;54687;50.800;6.772;2023-06-14T14:03:44;3.05;;;2.00;;
11016;SDS011;54687;50.800;6.772;2023-06-14T14:06:11;1.80;;;1.70;;
11016;SDS011;54687;50.800;6.772;2023-06-14T14:08:40;3.38;;;2.20;;
11016;SDS011;54687;50.800;6.772;2023-06-14T14:11:06;4.20;;;2.20;;
11016;SDS011;54687;50.800;6.772;2023-06-14T14:13:33;3.00;;;2.70;;
11016;SDS011;54687;50.800;6.772;2023-06-14T14:16:02;1.92;;;1.80;;
11016;SDS011;54687;50.800;6.772;2023-06-14T14:18:30;2.67;;;2.33;;
11016;SDS011;54687;50.800;6.772;2023-06-14T14:20:57;2.85;;;2.30;;
11016;SDS011;54687;50.800;6.772;2023-06-14T14:23:25;2.80;;;2.30;;
11016;SDS011;54687;50.800;6.772;2023-06-14T14:25:54;4.82;;;2.40;;
11016;SDS011;54687;50.800;6.772;2023-06-14T14:28:20;3.47;;;2.20;;
11016;SDS011;54687;50.800;6.772;2023-06-14T14:30:47;3.22;;;2.40;;
11016;SDS011;54687;50.800;6.772;2023-06-14T14:33:14;2.50;;;2.30;;
11016;SDS011;54687;50.800;6.772;2023-06-14T14:35:42;3.33;;;2.72;;
11016;SDS011;54687;50.800;6.772;2023-06-14T14:38:11;3.58;;;2.30;;
11016;SDS011;54687;50.800;6.772;2023-06-14T14:40:37;3.83;;;2.58;;
11016;SDS011;54687;50.800;6.772;2023-06-14T14:43:06;3.42;;;2.40;;
11016;SDS011;54687;50.800;6.772;2023-06-14T14:45:33;3.38;;;2.70;;
11016;SDS011;54687;50.800;6.772;2023-06-14T14:48:00;4.75;;;4.32;;
11016;SDS011;54687;50.800;6.772;2023-06-14T14:50:28;4.18;;;2.92;;
11016;SDS011;54687;50.800;6.772;2023-06-14T14:52:54;2.90;;;2.70;;
11016;SDS011;54687;50.800;6.772;2023-06-14T14:55:22;6.82;;;2.88;;
11016;SDS011;54687;50.800;6.772;2023-06-14T14:57:49;4.50;;;2.85;;
11016;SDS011;54687;50.800;6.772;2023-06-14T15:00:18;8.50;;;3.10;;
11016;SDS011;54687;50.800;6.772;2023-06-14T15:02:45;6.32;;;3.03;;